Grady, NM

4:24 PM MDT on September 04, 2015 (GMT -0600)
Tucumcari Municipal | | Change Station
CLOSE
Current Station
Airport
Location: Tucumcari,
Elevation: 4065 ft
Nearby Weather Stations

Elev 4065 ft 35.18 °N, 103.60 °W | Updated 31 minutes ago

Partly Cloudy
Partly Cloudy
91 °F
Feels Like 91 °F
N
12
Wind Variable Wind from SSW

Today
High -- | Low -- °F
--% Chance of Precip.
Yesterday
High -- | Low -- °F
Precip. -- in
6:28 AM 7:15 PM
Waning Gibbous, 55% visible
Pressure 29.75 in
Visibility 10.0 miles
Clouds Clear
Dew Point 46 °F
Humidity 21%
Rainfall 0.00 in
Snow Depth Not available.
UV 6 out of 12
Pollen 10.70 out of 12
Air Quality Not available.
Flu Activity Not available.
METAR KTCC 042153Z AUTO 21010KT 10SM CLR 33/08 A2996 RMK AO2 SLP075 T03280078
Pressure 29.75 in
Visibility 10.0 miles
Clouds Clear
Dew Point 46 °F
Humidity 21%
Rainfall 0.00 in
Snow Depth Not available.
UV 6 out of 12
Pollen 10.70 out of 12
Air Quality Not available.
Flu Activity Not available.
METAR KTCC 042153Z AUTO 21010KT 10SM CLR 33/08 A2996 RMK AO2 SLP075 T03280078

10-Day Weather Forecast

×

Almanac

Astronomy

Sep. 04, 2015 Rise Set
Actual Time
Civil Twilight
Nautical Twilight
Astronomical Twilight
Moon
Length of Visible Light
Length of Day
Tomorrow will be .
, % of the Moon is Illuminated

Today's Extremes

State Highs State Lows

Community

WunderPhotos

Upload Photos

1,852,308 photos uploaded!

WunderBlogs® & News

Nearby

Air Quality

  Air Quality AQ Index Pollutant
Not available.

Snow Depth

Station Depth Elevation

Earthquake Activity

City Distance Mag. Time & Date
Minimum magnitude displayed is 2.5.

Coastal Water Temperatures

Place Temperature

Stations

Nearby Weather Stations

Station Location Temp. Windchill Dew Point Humidity Wind Precip. Elev Updated Type